createdAt,value
2018-04-18T00:00:26.011Z,76.34
2018-04-18T00:01:26.069Z,76.43
2018-04-18T00:03:20.038Z,76.43
2018-04-18T00:04:19.603Z,76.34
2018-04-18T00:06:13.153Z,76.53
2018-04-18T00:07:13.174Z,76.63
2018-04-18T00:08:13.211Z,77.11
2018-04-18T00:09:13.250Z,77.30
2018-04-18T00:10:13.280Z,76.82
2018-04-18T00:11:13.316Z,77.21
2018-04-18T00:13:06.853Z,77.50
2018-04-18T00:14:06.881Z,77.21
2018-04-18T00:16:00.425Z,77.50
2018-04-18T00:17:00.444Z,76.72
2018-04-18T00:18:53.995Z,77.40
2018-04-18T00:19:54.928Z,77.30
2018-04-18T00:21:47.052Z,77.30
2018-04-18T00:22:47.076Z,77.01
2018-04-18T00:24:40.625Z,77.11
2018-04-18T00:25:40.646Z,77.78
2018-04-18T00:27:34.199Z,77.78
2018-04-18T00:28:34.222Z,76.92
2018-04-18T00:30:28.700Z,77.69
2018-04-18T00:31:27.785Z,77.69
2018-04-18T00:33:21.335Z,77.88
2018-04-18T00:34:21.357Z,77.50
2018-04-18T00:36:14.907Z,77.30
2018-04-18T00:37:14.946Z,77.50
2018-04-18T00:39:08.476Z,77.88
2018-04-18T00:40:08.499Z,77.69
2018-04-18T00:42:02.048Z,77.59
2018-04-18T00:43:02.070Z,77.50
2018-04-18T00:44:55.618Z,77.40
2018-04-18T00:45:55.640Z,77.78
2018-04-18T00:47:49.642Z,77.78
2018-04-18T00:48:49.210Z,77.78
2018-04-18T00:50:43.689Z,77.69
2018-04-18T00:51:42.781Z,77.30
2018-04-18T00:53:36.330Z,77.69
2018-04-18T00:54:36.352Z,77.30
2018-04-18T00:56:30.357Z,77.50
2018-04-18T00:57:29.925Z,78.17
2018-04-18T00:58:29.959Z,77.69
2018-04-18T00:59:29.998Z,77.59
2018-04-18T01:00:30.028Z,77.69
2018-04-18T01:01:30.064Z,77.88
2018-04-18T01:02:30.099Z,77.50
2018-04-18T01:03:30.133Z,78.27
2018-04-18T01:04:30.174Z,77.40
2018-04-18T01:05:30.202Z,77.98
2018-04-18T01:06:30.237Z,77.59
2018-04-18T01:07:30.275Z,77.50
2018-04-18T01:09:23.748Z,77.78
2018-04-18T01:10:23.771Z,77.88
2018-04-18T01:12:17.318Z,77.88
2018-04-18T01:13:17.339Z,78.08
2018-04-18T01:15:10.888Z,77.88
2018-04-18T01:16:10.917Z,77.78
2018-04-18T01:18:04.460Z,77.59
2018-04-18T01:19:04.480Z,78.85
2018-04-18T01:20:58.029Z,77.30
2018-04-18T01:21:58.057Z,78.46
2018-04-18T01:22:58.085Z,77.59
2018-04-18T01:23:58.121Z,77.59
2018-04-18T01:24:58.157Z,77.59
2018-04-18T01:25:58.192Z,78.08
2018-04-18T01:26:58.226Z,77.78
2018-04-18T01:27:58.262Z,78.75
2018-04-18T01:28:58.298Z,78.75
2018-04-18T01:29:58.963Z,77.78
2018-04-18T01:30:58.365Z,78.66
2018-04-18T01:32:51.869Z,78.36
2018-04-18T01:33:51.891Z,78.66
2018-04-18T01:35:45.439Z,78.75
2018-04-18T01:36:45.461Z,78.75
2018-04-18T01:38:39.017Z,78.75
2018-04-18T01:39:39.031Z,77.78
2018-04-18T01:41:32.580Z,77.69
2018-04-18T01:42:32.602Z,77.88
2018-04-18T01:44:26.150Z,78.08
2018-04-18T01:45:26.173Z,77.59
2018-04-18T01:46:26.208Z,78.75
2018-04-18T01:47:26.243Z,77.78
2018-04-18T01:48:26.310Z,77.59
2018-04-18T01:49:26.314Z,77.78
2018-04-18T01:50:26.350Z,77.59
2018-04-18T01:52:19.859Z,78.46
2018-04-18T01:53:19.884Z,78.46
2018-04-18T01:55:13.429Z,78.27
2018-04-18T01:56:13.456Z,78.36
2018-04-18T01:58:07.000Z,78.56
2018-04-18T01:59:07.022Z,77.98
2018-04-18T02:01:00.579Z,78.27
2018-04-18T02:02:00.596Z,78.56
2018-04-18T02:03:00.631Z,78.08
2018-04-18T02:04:54.168Z,78.27
2018-04-18T02:05:54.170Z,78.36
2018-04-18T02:07:47.207Z,77.98
2018-04-18T02:08:47.230Z,77.98
2018-04-18T02:09:47.264Z,78.56
2018-04-18T02:10:47.302Z,78.36
2018-04-18T02:11:47.333Z,78.17
2018-04-18T02:12:47.370Z,78.75
2018-04-18T02:14:40.908Z,78.08
2018-04-18T02:15:40.929Z,78.66
2018-04-18T02:17:34.480Z,78.27
2018-04-18T02:18:34.503Z,78.17
2018-04-18T02:19:34.537Z,77.88
2018-04-18T02:20:34.573Z,77.98
2018-04-18T02:21:34.630Z,78.17
2018-04-18T02:22:34.642Z,78.36
2018-04-18T02:23:34.676Z,78.08
2018-04-18T02:24:34.739Z,78.46
2018-04-18T02:26:28.197Z,78.36
2018-04-18T02:27:28.220Z,78.85
2018-04-18T02:29:21.767Z,78.36
2018-04-18T02:30:21.788Z,78.36
2018-04-18T02:32:17.792Z,78.36
2018-04-18T02:33:15.361Z,77.59
2018-04-18T02:35:08.907Z,78.27
2018-04-18T02:36:08.930Z,78.17
2018-04-18T02:38:02.475Z,78.56
2018-04-18T02:39:02.494Z,77.88
2018-04-18T02:40:56.046Z,78.56
2018-04-18T02:41:56.071Z,78.85
2018-04-18T02:43:49.625Z,77.88
2018-04-18T02:44:49.639Z,78.27
2018-04-18T02:45:49.672Z,78.27
2018-04-18T02:46:49.710Z,78.17
2018-04-18T02:47:49.743Z,78.27
2018-04-18T02:48:49.780Z,78.36
2018-04-18T02:49:49.812Z,78.46
2018-04-18T02:50:49.848Z,78.27
2018-04-18T02:51:49.884Z,78.27
2018-04-18T02:52:49.926Z,78.08
2018-04-18T02:54:43.449Z,78.36
2018-04-18T02:55:43.474Z,78.66
2018-04-18T02:57:37.018Z,78.85
2018-04-18T02:58:37.052Z,79.39
2018-04-18T03:00:30.592Z,79.14
2018-04-18T03:01:30.619Z,79.19
2018-04-18T03:03:24.161Z,78.56
2018-04-18T03:04:24.181Z,78.75
2018-04-18T03:06:17.738Z,78.36
2018-04-18T03:07:17.752Z,78.27
2018-04-18T03:08:17.791Z,78.08
2018-04-18T03:09:18.667Z,78.23
2018-04-18T03:10:17.875Z,78.36
2018-04-18T03:12:11.427Z,78.27
2018-04-18T03:13:11.445Z,78.61
2018-04-18T03:15:05.455Z,78.36
2018-04-18T03:16:05.017Z,77.98
2018-04-18T03:17:58.056Z,78.08
2018-04-18T03:18:58.080Z,78.13
2018-04-18T03:20:52.558Z,78.17
2018-04-18T03:21:51.648Z,78.36
2018-04-18T03:23:45.195Z,78.46
2018-04-18T03:24:45.216Z,78.27
2018-04-18T03:26:38.777Z,78.08
2018-04-18T03:27:38.788Z,77.98
2018-04-18T03:28:38.822Z,78.66
2018-04-18T03:29:38.858Z,78.13
2018-04-18T03:30:38.893Z,78.27
2018-04-18T03:31:38.929Z,78.36
2018-04-18T03:32:38.965Z,78.27
2018-04-18T03:33:39.023Z,77.75
2018-04-18T03:34:39.037Z,77.69
2018-04-18T03:35:39.069Z,78.13
2018-04-18T03:36:39.102Z,77.88
2018-04-18T03:37:39.139Z,77.65
2018-04-18T03:38:39.172Z,77.94
2018-04-18T03:39:39.211Z,77.50
2018-04-18T03:40:39.241Z,77.65
2018-04-18T03:41:39.277Z,77.75
2018-04-18T03:42:39.313Z,77.84
2018-04-18T03:43:39.345Z,77.88
2018-04-18T03:44:39.382Z,77.75
2018-04-18T03:45:40.205Z,78.33
2018-04-18T03:46:39.490Z,78.23
2018-04-18T03:48:32.987Z,77.84
2018-04-18T03:49:33.008Z,78.23
2018-04-18T03:51:26.556Z,78.71
2018-04-18T03:52:26.582Z,78.52
2018-04-18T03:53:26.625Z,78.61
2018-04-18T03:54:26.650Z,78.75
2018-04-18T03:55:26.684Z,78.71
2018-04-18T03:56:26.711Z,78.52
2018-04-18T03:58:20.256Z,78.66
2018-04-18T03:59:20.280Z,78.75
2018-04-18T04:01:13.827Z,78.71
2018-04-18T04:02:13.852Z,78.66
2018-04-18T04:04:07.401Z,77.98
2018-04-18T04:05:07.423Z,78.13
2018-04-18T04:07:00.970Z,78.23
2018-04-18T04:08:00.993Z,79.19
2018-04-18T04:09:01.029Z,79.33
2018-04-18T04:10:01.063Z,78.42
2018-04-18T04:11:01.098Z,78.61
2018-04-18T04:12:01.133Z,78.56
2018-04-18T04:13:01.167Z,78.52
2018-04-18T04:14:54.681Z,78.17
2018-04-18T04:15:54.702Z,78.66
2018-04-18T04:17:48.250Z,78.23
2018-04-18T04:18:48.277Z,78.52
2018-04-18T04:20:41.823Z,78.17
2018-04-18T04:21:41.848Z,78.33
2018-04-18T04:23:35.431Z,77.88
2018-04-18T04:24:35.413Z,77.84
2018-04-18T04:26:28.959Z,77.46
2018-04-18T04:27:28.982Z,77.84
2018-04-18T04:28:29.018Z,77.78
2018-04-18T04:29:29.056Z,77.55
2018-04-18T04:30:29.089Z,77.59
2018-04-18T04:31:29.123Z,77.36
2018-04-18T04:32:29.158Z,77.65
2018-04-18T04:33:29.211Z,77.55
2018-04-18T04:34:29.224Z,77.75
2018-04-18T04:35:29.258Z,78.03
2018-04-18T04:37:22.795Z,77.55
2018-04-18T04:38:22.818Z,77.78
2018-04-18T04:40:16.365Z,77.55
2018-04-18T04:41:16.389Z,77.75
2018-04-18T04:43:09.936Z,77.46
2018-04-18T04:44:09.959Z,78.13
2018-04-18T04:46:03.504Z,78.13
2018-04-18T04:47:03.528Z,77.94
2018-04-18T04:48:03.562Z,77.75
2018-04-18T04:49:03.603Z,78.03
2018-04-18T04:50:03.633Z,77.26
2018-04-18T04:51:03.668Z,77.94
2018-04-18T04:52:03.699Z,78.03
2018-04-18T04:53:03.735Z,77.84
2018-04-18T04:54:57.220Z,77.46
2018-04-18T04:55:57.243Z,77.84
2018-04-18T04:57:50.801Z,77.65
2018-04-18T04:58:50.822Z,77.84
2018-04-18T05:00:44.366Z,76.88
2018-04-18T05:01:44.386Z,77.07
2018-04-18T05:03:37.934Z,77.26
2018-04-18T05:04:37.956Z,77.55
2018-04-18T05:06:31.505Z,77.26
2018-04-18T05:07:31.536Z,77.36
2018-04-18T05:09:25.076Z,77.36
2018-04-18T05:10:25.107Z,77.07
2018-04-18T05:12:18.653Z,77.30
2018-04-18T05:13:18.665Z,72.63
2018-04-18T05:15:12.219Z,66.08
2018-04-18T05:16:12.237Z,65.69
2018-04-18T05:18:05.789Z,66.27
2018-04-18T05:19:05.809Z,66.75
2018-04-18T05:20:58.844Z,68.10
2018-04-18T05:21:58.867Z,69.55
2018-04-18T05:23:52.416Z,71.67
2018-04-18T05:24:52.437Z,72.15
2018-04-18T05:26:45.479Z,73.41
2018-04-18T05:27:45.498Z,73.69
2018-04-18T05:29:39.041Z,73.99
2018-04-18T05:30:39.066Z,74.76
2018-04-18T05:32:32.612Z,74.95
2018-04-18T05:33:32.635Z,75.24
2018-04-18T05:35:27.145Z,75.24
2018-04-18T05:36:26.209Z,74.95
2018-04-18T05:38:19.756Z,75.24
2018-04-18T05:39:20.697Z,73.11
2018-04-18T05:41:13.328Z,73.69
2018-04-18T05:42:13.351Z,73.50
2018-04-18T05:44:06.898Z,73.21
2018-04-18T05:45:06.958Z,72.92
2018-04-18T05:47:00.471Z,73.63
2018-04-18T05:48:00.487Z,73.35
2018-04-18T05:49:54.036Z,73.35
2018-04-18T05:50:54.058Z,73.69
2018-04-18T05:52:48.061Z,73.15
2018-04-18T05:53:47.630Z,73.73
2018-04-18T05:55:41.181Z,73.44
2018-04-18T05:56:41.204Z,74.89
2018-04-18T05:58:34.755Z,75.76
2018-04-18T05:59:34.772Z,75.27
2018-04-18T06:01:28.774Z,74.79
2018-04-18T06:02:28.343Z,75.09
2018-04-18T06:04:22.340Z,74.79
2018-04-18T06:05:21.905Z,74.21
2018-04-18T06:07:15.461Z,73.54
2018-04-18T06:08:15.483Z,74.12
2018-04-18T06:10:08.679Z,75.27
2018-04-18T06:11:08.708Z,74.99
2018-04-18T06:13:01.795Z,75.67
2018-04-18T06:14:01.806Z,75.95
2018-04-18T06:15:01.839Z,75.95
2018-04-18T06:16:01.879Z,75.76
2018-04-18T06:17:01.908Z,75.95
2018-04-18T06:18:01.945Z,75.76
2018-04-18T06:19:01.980Z,75.76
2018-04-18T06:20:02.015Z,75.85
2018-04-18T06:21:02.048Z,75.95
2018-04-18T06:22:02.083Z,75.76
2018-04-18T06:23:02.119Z,75.85
2018-04-18T06:24:02.152Z,75.76
2018-04-18T06:25:02.187Z,75.57
2018-04-18T06:26:02.222Z,73.63
2018-04-18T06:27:02.257Z,63.60
2018-04-18T06:28:02.296Z,63.12
2018-04-18T06:29:02.333Z,63.50
2018-04-18T06:30:02.363Z,58.29
2018-04-18T06:31:02.402Z,58.10
2018-04-18T06:32:02.431Z,59.16
2018-04-18T06:33:02.468Z,59.45
2018-04-18T06:34:02.501Z,59.16
2018-04-18T06:35:02.658Z,58.19
2018-04-18T06:36:02.570Z,58.29
2018-04-18T06:37:02.609Z,59.74
2018-04-18T06:38:02.649Z,58.39
2018-04-18T06:39:02.834Z,56.16
2018-04-18T06:40:02.715Z,53.83
2018-04-18T06:41:02.745Z,54.88
2018-04-18T06:42:02.780Z,53.83
2018-04-18T06:43:02.820Z,56.43
2018-04-18T06:44:02.858Z,58.94
2018-04-18T06:45:02.890Z,60.48
2018-04-18T06:46:56.402Z,62.31
2018-04-18T06:47:56.602Z,63.18
2018-04-18T06:49:49.967Z,64.63
2018-04-18T06:50:49.988Z,64.92
2018-04-18T06:51:50.026Z,65.30
2018-04-18T06:52:50.907Z,65.20
2018-04-18T06:53:50.098Z,65.69
2018-04-18T06:55:43.660Z,66.27
2018-04-18T06:56:43.952Z,67.04
2018-04-18T06:58:38.663Z,67.14
2018-04-18T06:59:37.256Z,67.81
2018-04-18T07:01:30.290Z,67.52
2018-04-18T07:02:30.315Z,68.59
2018-04-18T07:04:23.357Z,68.01
2018-04-18T07:05:23.378Z,68.59
2018-04-18T07:06:23.405Z,68.49
2018-04-18T07:07:23.444Z,68.59
2018-04-18T07:08:23.475Z,68.87
2018-04-18T07:09:23.510Z,68.49
2018-04-18T07:10:23.545Z,69.26
2018-04-18T07:11:23.579Z,69.16
2018-04-18T07:12:23.612Z,68.77
2018-04-18T07:13:23.649Z,68.77
2018-04-18T07:14:23.683Z,68.87
2018-04-18T07:15:23.719Z,69.26
2018-04-18T07:16:23.751Z,69.35
2018-04-18T07:17:23.809Z,69.07
2018-04-18T07:18:23.822Z,69.35
2018-04-18T07:19:23.863Z,68.97
2018-04-18T07:20:23.891Z,69.07
2018-04-18T07:21:23.929Z,69.64
2018-04-18T07:22:23.961Z,69.84
2018-04-18T07:23:23.995Z,69.93
2018-04-18T07:24:24.031Z,69.84
2018-04-18T07:25:24.066Z,69.10
2018-04-18T07:26:24.099Z,69.68
2018-04-18T07:27:24.133Z,69.64
2018-04-18T07:28:24.167Z,69.64
2018-04-18T07:29:24.206Z,69.35
2018-04-18T07:30:24.231Z,69.16
2018-04-18T07:31:24.271Z,68.97
2018-04-18T07:32:24.308Z,69.45
2018-04-18T07:33:24.340Z,69.64
2018-04-18T07:34:24.395Z,69.29
2018-04-18T07:35:24.413Z,68.97
2018-04-18T07:36:24.444Z,68.91
2018-04-18T07:37:24.479Z,68.91
2018-04-18T07:38:24.517Z,69.26
2018-04-18T07:39:24.550Z,69.00
2018-04-18T07:40:24.585Z,69.16
2018-04-18T07:41:24.622Z,69.07
2018-04-18T07:42:24.656Z,69.10
2018-04-18T07:43:24.691Z,69.07
2018-04-18T07:44:24.720Z,69.39
2018-04-18T07:45:24.759Z,69.07
2018-04-18T07:46:24.791Z,69.10
2018-04-18T07:47:24.827Z,69.10
2018-04-18T07:48:24.859Z,68.81
2018-04-18T07:49:24.894Z,69.29
2018-04-18T07:50:24.930Z,69.10
2018-04-18T07:51:24.967Z,69.29
2018-04-18T07:52:25.000Z,69.10
2018-04-18T07:53:25.035Z,69.10
2018-04-18T07:54:25.067Z,69.39
2018-04-18T07:55:25.103Z,69.39
2018-04-18T07:56:25.136Z,69.35
2018-04-18T07:57:25.175Z,69.29
2018-04-18T07:58:25.809Z,69.39
2018-04-18T07:59:25.242Z,69.29
2018-04-18T08:01:18.746Z,69.10
2018-04-18T08:02:18.770Z,69.10
2018-04-18T08:04:12.315Z,69.29
2018-04-18T08:05:12.337Z,69.20
2018-04-18T08:07:05.885Z,69.10
2018-04-18T08:08:06.819Z,69.29
2018-04-18T08:09:59.456Z,69.20
2018-04-18T08:10:59.505Z,69.10
2018-04-18T08:12:53.486Z,68.91
2018-04-18T08:13:53.050Z,68.81
2018-04-18T08:15:46.596Z,69.10
2018-04-18T08:16:46.618Z,69.29
2018-04-18T08:17:46.655Z,68.81
2018-04-18T08:18:46.688Z,69.39
2018-04-18T08:19:46.722Z,68.81
2018-04-18T08:20:46.753Z,69.39
2018-04-18T08:21:46.824Z,69.39
2018-04-18T08:22:46.828Z,69.00
2018-04-18T08:23:46.863Z,69.10
2018-04-18T08:24:46.897Z,69.20
2018-04-18T08:25:46.934Z,69.20
2018-04-18T08:26:46.966Z,69.00
2018-04-18T08:27:47.001Z,69.10
2018-04-18T08:28:47.038Z,69.10
2018-04-18T08:29:47.071Z,69.10
2018-04-18T08:30:47.105Z,69.00
2018-04-18T08:31:47.341Z,69.00
2018-04-18T08:32:47.174Z,69.00
2018-04-18T08:33:47.209Z,69.00
2018-04-18T08:34:47.243Z,68.71
2018-04-18T08:35:47.298Z,68.81
2018-04-18T08:36:47.348Z,68.62
2018-04-18T08:40:13.121Z,69.00
2018-04-18T08:41:13.327Z,69.00
2018-04-18T08:43:06.618Z,68.52
2018-04-18T08:44:07.139Z,68.43
2018-04-18T08:46:00.580Z,69.20
2018-04-18T08:47:00.165Z,68.62
2018-04-18T08:48:53.952Z,68.91
2018-04-18T08:49:53.904Z,68.71
2018-04-18T08:51:47.367Z,69.29
2018-04-18T08:52:47.391Z,69.10
2018-04-18T08:54:45.092Z,68.81
2018-04-18T08:55:45.497Z,69.20
2018-04-18T08:56:45.107Z,69.20
2018-04-18T08:57:45.139Z,69.10
2018-04-18T08:58:45.174Z,69.29
2018-04-18T08:59:45.221Z,68.81
2018-04-18T09:00:45.244Z,69.00
2018-04-18T09:01:45.279Z,68.71
2018-04-18T09:02:45.331Z,68.52
2018-04-18T09:03:46.026Z,68.52
2018-04-18T09:05:38.871Z,68.91
2018-04-18T09:06:38.903Z,68.52
2018-04-18T09:08:32.441Z,68.13
2018-04-18T09:09:32.461Z,68.23
2018-04-18T09:11:25.499Z,68.33
2018-04-18T09:12:25.518Z,68.33
2018-04-18T09:14:19.071Z,68.43
2018-04-18T09:15:19.090Z,68.33
2018-04-18T09:16:19.126Z,68.33
2018-04-18T09:17:19.162Z,68.62
2018-04-18T09:18:19.195Z,68.43
2018-04-18T09:19:19.373Z,68.04
2018-04-18T09:20:19.264Z,68.23
2018-04-18T09:22:12.801Z,68.33
2018-04-18T09:23:12.800Z,68.13
2018-04-18T09:25:06.346Z,68.13
2018-04-18T09:26:06.368Z,68.62
2018-04-18T09:27:06.402Z,68.62
2018-04-18T09:28:06.440Z,68.13
2018-04-18T09:29:06.472Z,68.43
2018-04-18T09:30:06.507Z,68.23
2018-04-18T09:31:06.542Z,68.23
2018-04-18T09:32:06.577Z,67.85
2018-04-18T09:33:06.634Z,68.23
2018-04-18T09:34:06.649Z,68.13
2018-04-18T09:35:06.682Z,67.85
2018-04-18T09:36:06.715Z,68.13
2018-04-18T09:37:06.749Z,68.43
2018-04-18T09:38:06.790Z,67.46
2018-04-18T09:39:06.819Z,67.75
2018-04-18T09:40:06.864Z,67.75
2018-04-18T09:41:06.903Z,67.55
2018-04-18T09:42:06.927Z,67.85
2018-04-18T09:43:06.959Z,67.94
2018-04-18T09:44:06.995Z,67.55
2018-04-18T09:45:07.032Z,67.75
2018-04-18T09:46:07.063Z,67.94
2018-04-18T09:47:07.100Z,67.85
2018-04-18T09:48:07.135Z,67.46
2018-04-18T09:49:07.167Z,67.55
2018-04-18T09:50:07.358Z,67.46
2018-04-18T09:51:07.785Z,67.46
2018-04-18T09:52:07.274Z,67.46
2018-04-18T09:54:00.823Z,67.36
2018-04-18T09:55:00.847Z,67.65
2018-04-18T09:56:54.848Z,67.27
2018-04-18T09:57:54.415Z,67.75
2018-04-18T09:59:47.963Z,67.17
2018-04-18T10:00:47.990Z,67.17
2018-04-18T10:02:41.533Z,67.17
2018-04-18T10:03:41.556Z,67.27
2018-04-18T10:05:35.107Z,66.59
2018-04-18T10:06:35.131Z,66.97
2018-04-18T10:08:28.675Z,66.88
2018-04-18T10:09:28.697Z,67.07
2018-04-18T10:11:22.247Z,66.88
2018-04-18T10:12:22.268Z,66.88
2018-04-18T10:14:15.816Z,67.27
2018-04-18T10:15:15.839Z,66.88
2018-04-18T10:17:10.318Z,67.07
2018-04-18T10:18:09.409Z,66.78
2018-04-18T10:20:02.955Z,67.07
2018-04-18T10:21:02.981Z,67.17
2018-04-18T10:22:56.997Z,66.97
2018-04-18T10:23:56.553Z,66.59
2018-04-18T10:25:50.554Z,66.88
2018-04-18T10:26:50.120Z,66.97
2018-04-18T10:27:50.155Z,67.27
2018-04-18T10:28:50.191Z,67.07
2018-04-18T10:30:43.683Z,66.88
2018-04-18T10:31:43.702Z,67.07
2018-04-18T10:33:37.253Z,66.97
2018-04-18T10:34:37.279Z,67.27
2018-04-18T10:36:30.824Z,67.36
2018-04-18T10:37:30.846Z,67.36
2018-04-18T10:39:24.392Z,67.07
2018-04-18T10:40:24.416Z,67.07
2018-04-18T10:42:17.970Z,67.07
2018-04-18T10:43:17.989Z,67.36
2018-04-18T10:45:11.532Z,67.07
2018-04-18T10:46:11.557Z,67.17
2018-04-18T10:48:05.103Z,67.07
2018-04-18T10:49:05.125Z,66.97
2018-04-18T10:50:58.673Z,67.17
2018-04-18T10:51:58.698Z,67.17
2018-04-18T10:53:52.248Z,66.97
2018-04-18T10:54:52.268Z,67.27
2018-04-18T10:56:45.819Z,66.97
2018-04-18T10:57:45.839Z,67.36
2018-04-18T10:59:39.840Z,66.78
2018-04-18T11:00:39.407Z,66.40
2018-04-18T11:01:39.446Z,67.17
2018-04-18T11:02:39.481Z,67.07
2018-04-18T11:04:32.973Z,67.17
2018-04-18T11:05:32.997Z,67.17
2018-04-18T11:07:26.542Z,66.97
2018-04-18T11:08:26.566Z,67.17
2018-04-18T11:10:20.113Z,66.40
2018-04-18T11:11:20.138Z,66.40
2018-04-18T11:13:13.726Z,66.49
2018-04-18T11:14:13.706Z,66.59
2018-04-18T11:16:07.706Z,66.40
2018-04-18T11:17:07.284Z,66.78
2018-04-18T11:19:00.825Z,66.88
2018-04-18T11:20:00.845Z,66.49
2018-04-18T11:21:54.395Z,66.72
2018-04-18T11:22:54.421Z,66.40
2018-04-18T11:24:48.419Z,66.78
2018-04-18T11:25:47.987Z,66.91
2018-04-18T11:27:41.537Z,66.59
2018-04-18T11:28:41.560Z,66.78
2018-04-18T11:30:35.106Z,66.69
2018-04-18T11:31:35.129Z,66.33
2018-04-18T11:33:28.678Z,66.24
2018-04-18T11:34:28.704Z,66.40
2018-04-18T11:35:28.745Z,66.01
2018-04-18T11:36:28.772Z,65.82
2018-04-18T11:37:28.816Z,66.11
2018-04-18T11:38:28.842Z,65.72
2018-04-18T11:39:28.876Z,65.53
2018-04-18T11:40:28.912Z,65.27
2018-04-18T11:41:28.947Z,65.82
2018-04-18T11:42:28.980Z,66.05
2018-04-18T11:43:29.016Z,66.53
2018-04-18T11:44:29.052Z,65.95
2018-04-18T11:45:29.144Z,65.72
2018-04-18T11:46:29.119Z,65.56
2018-04-18T11:47:29.156Z,65.82
2018-04-18T11:48:29.191Z,65.85
2018-04-18T11:49:29.224Z,65.72
2018-04-18T11:50:29.268Z,65.37
2018-04-18T11:51:29.296Z,65.56
2018-04-18T11:52:29.332Z,65.75
2018-04-18T11:53:29.367Z,65.95
2018-04-18T11:54:29.401Z,65.56
2018-04-18T11:56:22.496Z,65.75
2018-04-18T11:57:22.518Z,65.85
2018-04-18T11:59:16.065Z,66.05
2018-04-18T12:00:16.088Z,65.75
2018-04-18T12:02:09.646Z,65.66
2018-04-18T12:03:09.661Z,65.85
2018-04-18T12:05:03.205Z,65.56
2018-04-18T12:06:03.229Z,65.56
2018-04-18T12:07:56.777Z,65.66
2018-04-18T12:08:56.803Z,65.66
2018-04-18T12:10:50.348Z,65.66
2018-04-18T12:11:50.370Z,65.27
2018-04-18T12:13:43.917Z,65.75
2018-04-18T12:14:43.940Z,65.47
2018-04-18T12:16:37.489Z,65.75
2018-04-18T12:17:37.511Z,65.66
2018-04-18T12:19:31.059Z,65.47
2018-04-18T12:20:31.084Z,65.66
2018-04-18T12:22:24.628Z,65.66
2018-04-18T12:23:24.652Z,65.75
2018-04-18T12:25:18.654Z,65.75
2018-04-18T12:26:18.216Z,65.27
2018-04-18T12:28:11.763Z,65.66
2018-04-18T12:29:11.791Z,65.56
2018-04-18T12:30:11.828Z,65.47
2018-04-18T12:31:11.862Z,65.95
2018-04-18T12:32:11.896Z,65.85
2018-04-18T12:33:11.933Z,65.47
2018-04-18T12:34:11.967Z,65.85
2018-04-18T12:35:12.001Z,65.95
2018-04-18T12:36:12.038Z,65.85
2018-04-18T12:37:12.072Z,65.75
2018-04-18T12:38:12.106Z,65.85
2018-04-18T12:39:12.145Z,65.85
2018-04-18T12:40:12.177Z,65.37
2018-04-18T12:41:12.210Z,65.66
2018-04-18T12:42:12.248Z,65.27
2018-04-18T12:43:12.282Z,64.98
2018-04-18T12:44:12.346Z,65.17
2018-04-18T12:45:12.351Z,65.27
2018-04-18T12:46:12.387Z,65.27
2018-04-18T12:47:12.421Z,65.27
2018-04-18T12:48:12.455Z,65.85
2018-04-18T12:49:12.498Z,65.17
2018-04-18T12:50:13.209Z,65.08
2018-04-18T12:51:12.568Z,65.27
2018-04-18T12:53:06.112Z,64.21
2018-04-18T12:54:06.138Z,64.11
2018-04-18T12:55:59.684Z,64.50
2018-04-18T12:56:59.703Z,64.69
2018-04-18T12:58:52.796Z,64.89
2018-04-18T12:59:52.771Z,64.98
2018-04-18T13:01:46.312Z,65.08
2018-04-18T13:02:46.332Z,65.17
2018-04-18T13:04:39.368Z,64.69
2018-04-18T13:05:39.396Z,64.98
2018-04-18T13:07:32.950Z,64.59
2018-04-18T13:08:32.962Z,64.50
2018-04-18T13:09:32.998Z,64.50
2018-04-18T13:10:33.081Z,64.69
2018-04-18T13:11:33.071Z,64.59
2018-04-18T13:12:33.105Z,64.79
2018-04-18T13:13:33.183Z,64.69
2018-04-18T13:14:33.174Z,64.69
2018-04-18T13:15:33.217Z,64.59
2018-04-18T13:16:33.250Z,64.89
2018-04-18T13:17:33.293Z,64.98
2018-04-18T13:18:33.325Z,64.69
2018-04-18T13:19:33.479Z,64.59
2018-04-18T13:20:33.381Z,64.59
2018-04-18T13:21:33.416Z,64.79
2018-04-18T13:22:33.448Z,64.59
2018-04-18T13:23:33.490Z,64.59
2018-04-18T13:24:33.523Z,64.69
2018-04-18T13:25:33.562Z,63.92
2018-04-18T13:26:33.594Z,64.21
2018-04-18T13:27:33.630Z,64.69
2018-04-18T13:28:33.662Z,65.08
2018-04-18T13:29:33.731Z,64.79
2018-04-18T13:30:33.856Z,64.79
2018-04-18T13:31:33.762Z,64.79
2018-04-18T13:32:33.802Z,64.89
2018-04-18T13:33:33.840Z,65.08
2018-04-18T13:34:33.944Z,64.79
2018-04-18T13:35:33.908Z,64.79
2018-04-18T13:36:33.942Z,65.08
2018-04-18T13:37:33.978Z,64.69
2018-04-18T13:38:34.014Z,64.21
2018-04-18T13:39:34.048Z,64.50
2018-04-18T13:40:34.082Z,64.89
2018-04-18T13:41:34.154Z,64.59
2018-04-18T13:42:34.155Z,64.50
2018-04-18T13:43:34.185Z,64.40
2018-04-18T13:44:34.223Z,64.50
2018-04-18T13:45:34.258Z,64.69
2018-04-18T13:46:34.295Z,64.50
2018-04-18T13:47:34.330Z,64.40
2018-04-18T13:48:34.364Z,64.79
2018-04-18T13:49:34.400Z,64.40
2018-04-18T13:50:34.435Z,64.21
2018-04-18T13:51:34.469Z,64.50
2018-04-18T13:52:34.550Z,64.50
2018-04-18T13:53:34.543Z,64.79
2018-04-18T13:54:34.575Z,64.98
2018-04-18T13:55:34.613Z,64.69
2018-04-18T13:56:34.644Z,64.40
2018-04-18T13:57:34.698Z,64.69
2018-04-18T13:58:34.719Z,64.59
2018-04-18T13:59:34.749Z,64.79
2018-04-18T14:00:34.784Z,64.21
2018-04-18T14:01:34.819Z,64.31
2018-04-18T14:02:34.856Z,64.31
2018-04-18T14:03:34.942Z,64.01
2018-04-18T14:04:34.957Z,63.82
2018-04-18T14:05:35.005Z,63.82
2018-04-18T14:06:35.000Z,64.31
2018-04-18T14:07:35.029Z,64.01
2018-04-18T14:11:00.659Z,64.21
2018-04-18T14:12:00.681Z,63.53
2018-04-18T14:13:54.687Z,63.73
2018-04-18T14:14:54.184Z,64.11
2018-04-18T14:16:48.179Z,63.63
2018-04-18T14:17:48.682Z,63.53
2018-04-18T14:19:41.144Z,63.73
2018-04-18T14:20:41.165Z,63.53
2018-04-18T14:22:34.650Z,63.82
2018-04-18T14:23:34.666Z,63.92
2018-04-18T14:25:28.142Z,62.86
2018-04-18T14:26:28.174Z,62.86
2018-04-18T14:28:21.650Z,63.24
2018-04-18T14:29:21.666Z,63.63
2018-04-18T14:31:15.148Z,63.63
2018-04-18T14:32:15.165Z,63.34
2018-04-18T14:34:08.643Z,62.66
2018-04-18T14:35:08.668Z,62.76
2018-04-18T14:37:02.146Z,63.53
2018-04-18T14:38:02.165Z,63.43
2018-04-18T14:39:55.644Z,63.53
2018-04-18T14:40:55.666Z,62.08
2018-04-18T14:41:55.701Z,63.43
2018-04-18T14:42:55.738Z,63.92
2018-04-18T14:43:55.773Z,63.92
2018-04-18T14:44:55.803Z,64.01
2018-04-18T14:45:55.838Z,63.73
2018-04-18T14:46:55.875Z,63.15
2018-04-18T14:47:55.929Z,63.43
2018-04-18T14:48:55.948Z,64.01
2018-04-18T14:49:55.983Z,63.82
2018-04-18T14:50:56.017Z,63.63
2018-04-18T14:51:56.052Z,64.01
2018-04-18T14:52:56.084Z,63.92
2018-04-18T14:53:56.126Z,63.53
2018-04-18T14:54:56.164Z,63.73
2018-04-18T14:55:56.193Z,63.73
2018-04-18T14:56:56.233Z,63.73
2018-04-18T14:57:56.260Z,63.24
2018-04-18T14:58:56.306Z,64.21
2018-04-18T14:59:56.331Z,63.53
2018-04-18T15:00:56.378Z,63.82
2018-04-18T15:01:56.406Z,63.34
2018-04-18T15:02:56.438Z,64.11
2018-04-18T15:03:56.472Z,63.43
2018-04-18T15:04:56.505Z,63.34
2018-04-18T15:05:56.560Z,63.66
2018-04-18T15:06:56.575Z,63.82
2018-04-18T15:07:56.615Z,63.53
2018-04-18T15:08:56.697Z,63.15
2018-04-18T15:09:56.687Z,64.11
2018-04-18T15:10:56.717Z,63.82
2018-04-18T15:11:56.755Z,63.18
2018-04-18T15:12:56.791Z,63.18
2018-04-18T15:13:56.832Z,62.70
2018-04-18T15:14:56.858Z,61.22
2018-04-18T15:15:56.893Z,59.70
2018-04-18T15:16:56.924Z,59.67
2018-04-18T15:17:56.963Z,56.68
2018-04-18T15:18:56.998Z,57.77
2018-04-18T15:31:56.723Z,51.17
2018-04-18T15:32:20.626Z,50.69
2018-04-18T15:36:09.719Z,50.98
2018-04-18T15:36:46.285Z,50.89
2018-04-18T15:40:36.963Z,50.43
2018-04-18T15:41:11.956Z,50.79
2018-04-18T15:43:04.951Z,51.29
2018-04-18T15:44:04.965Z,50.79
2018-04-18T19:28:38.327Z,47.05
2018-04-18T19:29:38.279Z,46.95
2018-04-18T19:31:31.827Z,46.85
2018-04-18T19:32:31.850Z,46.85
2018-04-18T19:34:25.427Z,46.85
2018-04-18T19:35:25.425Z,47.05
2018-04-18T19:37:18.969Z,46.95
2018-04-18T19:38:18.991Z,46.95
2018-04-18T19:40:12.533Z,46.75
2018-04-18T19:41:12.561Z,46.56
2018-04-18T19:43:06.110Z,46.95
2018-04-18T19:44:06.134Z,47.14
2018-04-18T19:45:59.671Z,46.85